AirNav   Pilot Hours Calculator
 
 1099 users online  

45MI Rotor-Lift Heliport
Swartz Creek, Michigan, USA


FAA INFORMATION EFFECTIVE 07 NOVEMBER 2019

Location

FAA Identifier: 45MI
Lat/Long: 42-52-12.8100N 083-49-25.3400W
42-52.213500N 083-49.422333W
42.8702250,-83.8237056
(estimated)
Elevation: 850 ft. / 259 m
From city: 5 miles S of SWARTZ CREEK, MI
Time zone: UTC -5 (UTC -4 during Daylight Saving Time)
Zip code: 48436

Heliport Operations

Heliport use: Private use. Permission required prior to landing
Activation date: 04/2019
Control tower: no
ARTCC: CLEVELAND CENTER
FSS: LANSING FLIGHT SERVICE STATION
Attendance: 
Segmented circle: no

Heliport Communications

WX ASOS at FNT (7 nm NE): PHONE 810-342-7804
WX AWOS-3 at RNP (16 nm NW): 118.025 (989-729-2967)
WX AWOS-3 at OZW (16 nm SW): 118.875 (517-546-4450)

Nearby radio navigation aids

VOR radial/distance  VOR name  Freq  Var
FNTr216/6.7FLINT VORTAC116.9006W
SVMr343/29.5SALEM VORTAC114.3003W

Heliport Services

Runway Information

Helipad H1

Dimensions: 90 x 90 ft. / 27 x 27 m
Surface: turf
Traffic pattern: leftleft

Heliport Ownership and Management from official FAA records

Ownership: Privately-owned
Owner: JOHN T. KRUG
10508 BEERS RD
SWARTZ CREEK, MI 48473-9125
Phone 810-577-2168
Manager: JOHN T KRUG
10508 BEERS RD
SWARTZ CREEK, MI 48473
Phone 810-577-2168

Instrument Procedures

There are no published instrument procedures at 45MI.

Some nearby airports with instrument procedures:

9G2 - Price's Airport (4 nm SE)
KFNT - Bishop International Airport (7 nm NE)
KRNP - Owosso Community Airport (16 nm NW)
KOZW - Livingston County Spencer J Hardy Airport (16 nm SW)
KPTK - Oakland County International Airport (22 nm SE)
 
Loc | Ops | Rwys | IFR | FBO | Links
Com | Nav | Svcs | Stats | Notes
Aerial photo
No photo
 
Airport distance calculator
Flying to Rotor-Lift Heliport? Find the distance to fly.

From to 45MI

Sunrise and sunset
Times for 21-Nov-2019
 Local
(UTC-5)
 Zulu
(UTC)
Morning civil twilight07:0512:05
Sunrise07:3612:36
Sunset17:0722:07
Evening civil twilight17:3822:38

Current date and time
Zulu (UTC)  22-Nov-2019 00:35:58
Local (UTC-5)  21-Nov-2019 19:35:58
 
METAR
KFNT 
7nm NE 
212353Z 23015G24KT 8SM OVC012 12/09 A2965 RMK AO2 RAB16E46 SLP043 P0000 60004 T01170089 10117 20072 55000
KRNP 
16nm NW 
220016Z AUTO 24019G29KT 10SM OVC010 12/10 A2965 RMK AO2 T01160100
KOZW 
16nm SW 
220016Z AUTO 25017G30KT 5SM BR OVC013 10/08 A2969 RMK AO2 T01020080
TAF
KFNT 
7nm NE 
212039Z 2121/2218 20018G27KT 3SM -SHRA SCT007 OVC012 FM212200 21020G30KT 3SM -DZ OVC007 FM220300 28018G28KT P6SM OVC016 FM220800 30014G24KT P6SM OVC025 FM221400 31012G18KT P6SM BKN030
NOTAMs
Click for the latest NOTAMs
NOTAMs are issued by the DoD/FAA and will open in a separate window not controlled by AirNav.

 

 
 

Would you like to see your business listed on this page?

 If your business provides an interesting product or service to pilots, flight crews, aircraft, or users of the Rotor-Lift Heliport, you should consider listing it here.  To start the listing process, click on the button below
 
Add a business
 

Other Pages about Rotor-Lift Heliport

Update a link
 
Copyright © AirNav, LLC. All rights reserved. Privacy Policy  Contact